Airfield :
LOGIN :

Register | Disclaimer

   EN    FR    IT 

 










Legend :    VFR   Marginal VFR   IFR   Intensive IFR   Very Intensive IFR
Visi :
Ceiling :
>= 8 km
>= 3000ft
5 to 8 km
1000 to 3000 ft
1500m to 5 km
500 to 1000 ft
800 to 1500m
200 to 500 ft
< 800m
< 200 ft
Symbols :   Thunderstorms  Fog  Heavy snow  Heavy precipitations  Wind > 20 kt
SIGMETs :     Misc.  Thunderstorms  Icing  Turbulence  Mountain Waves  Volcanic Ashes






- Airport Elevation : -15 ft
- IATA code : RTM


EHRD - Rotterdam Zestienhoven

CURRENT METAR :
  • 251655Z AUTO 20009KT 160V240 9999 OVC016 09/07 Q1015 TEMPO BKN014

EXPIRED METARs :
  • 251625Z AUTO 18010KT 9999 NSC 08/06 Q1015 TEMPO BKN014
  • 251555Z AUTO 18009KT 9999 SCT015 08/06 Q1015 TEMPO BKN014
  • 251525Z AUTO 19010KT 160V220 9999 NSC 08/06 Q1015 NOSIG
  • 251455Z AUTO 19011KT 160V220 9999 NSC 09/06 Q1015 NOSIG
  • 251425Z AUTO 19011KT 160V220 9999 FEW048 09/06 Q1015 NOSIG

TAF TAF EHRD
Valid from the 25 at 12:00 until the 26 at 18:00 UTC


251109Z 2512/2618 19010KT CAVOK
PROB40 2515/2521 BKN014
BECMG 2519/2522 19005KT 2500 BR -RADZ BKN005
TEMPO 2522/2612 1200 BKN003
PROB30 2603/2610 0500 FG BKN002
PROB30 2612/2615 4500 BKN008



MET'MAP, your aeronautical weather chart ! - Copyright ORBIFLY December 2007 - Disclaimer

ORBIFLY MET'MAP TEAM :

Programming & Development : Alexandra Zaïnal
Concept & original design : Baudouin d'Aumeries
Assistance for programming : Marc-Olivier Méhu
Technical & hardware support : Manuel Goepfert

Contact : metmap@orbifly.com




SOURCES & CREDITS :

   NOAA